sensor_id;sensor_type;location;lat;lon;timestamp;pressure;altitude;pressure_sealevel;temperature;humidity
28181;BME280;15464;50.988;10.318;2023-03-14T00:02:04;96708.63;;;9.85;90.78
28181;BME280;15464;50.988;10.318;2023-03-14T00:04:30;96717.72;;;9.83;91.83
28181;BME280;15464;50.988;10.318;2023-03-14T00:06:57;96744.03;;;9.84;91.88
28181;BME280;15464;50.988;10.318;2023-03-14T00:09:24;96746.13;;;9.89;92.30
28181;BME280;15464;50.988;10.318;2023-03-14T00:11:53;96767.31;;;9.89;92.53
28181;BME280;15464;50.988;10.318;2023-03-14T00:14:20;96768.50;;;9.86;92.80
28181;BME280;15464;50.988;10.318;2023-03-14T00:16:46;96779.94;;;9.87;92.32
28181;BME280;15464;50.988;10.318;2023-03-14T00:19:13;96783.91;;;9.83;92.60
28181;BME280;15464;50.988;10.318;2023-03-14T00:21:41;96786.56;;;9.83;92.00
28181;BME280;15464;50.988;10.318;2023-03-14T00:24:08;96800.63;;;9.83;91.92
28181;BME280;15464;50.988;10.318;2023-03-14T00:26:34;96815.78;;;9.89;90.61
28181;BME280;15464;50.988;10.318;2023-03-14T00:29:01;96835.81;;;9.92;89.61
28181;BME280;15464;50.988;10.318;2023-03-14T00:31:28;96827.88;;;9.92;89.40
28181;BME280;15464;50.988;10.318;2023-03-14T00:33:55;96836.75;;;9.99;88.02
28181;BME280;15464;50.988;10.318;2023-03-14T00:36:23;96843.38;;;9.95;87.71
28181;BME280;15464;50.988;10.318;2023-03-14T00:38:50;96844.38;;;9.94;86.52
28181;BME280;15464;50.988;10.318;2023-03-14T00:41:22;96858.66;;;9.93;87.59
28181;BME280;15464;50.988;10.318;2023-03-14T00:43:49;96858.28;;;9.96;87.47
28181;BME280;15464;50.988;10.318;2023-03-14T00:46:16;96844.03;;;9.97;88.36
28181;BME280;15464;50.988;10.318;2023-03-14T00:48:46;96839.41;;;9.99;87.98
28181;BME280;15464;50.988;10.318;2023-03-14T00:51:14;96841.97;;;10.07;86.70
28181;BME280;15464;50.988;10.318;2023-03-14T00:53:42;96851.94;;;10.05;86.71
28181;BME280;15464;50.988;10.318;2023-03-14T00:56:11;96850.28;;;10.04;86.32
28181;BME280;15464;50.988;10.318;2023-03-14T00:58:39;96840.31;;;10.06;86.17
28181;BME280;15464;50.988;10.318;2023-03-14T01:01:09;96842.66;;;10.01;86.27
28181;BME280;15464;50.988;10.318;2023-03-14T01:03:35;96843.38;;;9.95;86.98
28181;BME280;15464;50.988;10.318;2023-03-14T01:06:11;96833.56;;;10.03;84.92
28181;BME280;15464;50.988;10.318;2023-03-14T01:08:38;96825.34;;;9.98;85.02
28181;BME280;15464;50.988;10.318;2023-03-14T01:11:31;96817.66;;;10.03;83.34
28181;BME280;15464;50.988;10.318;2023-03-14T01:13:58;96819.59;;;10.09;82.72
28181;BME280;15464;50.988;10.318;2023-03-14T01:16:28;96819.03;;;10.14;81.81
28181;BME280;15464;50.988;10.318;2023-03-14T01:18:55;96816.28;;;10.07;82.36
28181;BME280;15464;50.988;10.318;2023-03-14T01:21:29;96828.91;;;10.05;82.21
28181;BME280;15464;50.988;10.318;2023-03-14T01:23:57;96803.59;;;10.03;81.53
28181;BME280;15464;50.988;10.318;2023-03-14T01:26:26;96796.75;;;10.08;80.82
28181;BME280;15464;50.988;10.318;2023-03-14T01:28:54;96809.19;;;10.08;81.44
28181;BME280;15464;50.988;10.318;2023-03-14T01:31:22;96791.63;;;10.07;81.46
28181;BME280;15464;50.988;10.318;2023-03-14T01:33:49;96790.81;;;10.06;81.52
28181;BME280;15464;50.988;10.318;2023-03-14T01:36:16;96798.56;;;10.08;81.29
28181;BME280;15464;50.988;10.318;2023-03-14T01:38:43;96786.34;;;10.07;81.00
28181;BME280;15464;50.988;10.318;2023-03-14T01:41:14;96788.16;;;10.06;80.77
28181;BME280;15464;50.988;10.318;2023-03-14T01:43:42;96772.09;;;10.08;81.34
28181;BME280;15464;50.988;10.318;2023-03-14T01:46:17;96771.81;;;10.03;81.41
28181;BME280;15464;50.988;10.318;2023-03-14T01:49:12;96763.88;;;10.03;81.59
28181;BME280;15464;50.988;10.318;2023-03-14T01:51:56;96766.78;;;10.08;81.55
28181;BME280;15464;50.988;10.318;2023-03-14T01:54:34;96752.28;;;10.04;81.13
28181;BME280;15464;50.988;10.318;2023-03-14T01:57:09;96741.41;;;9.99;81.97
28181;BME280;15464;50.988;10.318;2023-03-14T01:59:38;96742.84;;;10.01;81.65
28181;BME280;15464;50.988;10.318;2023-03-14T02:02:07;96738.38;;;10.02;81.56
28181;BME280;15464;50.988;10.318;2023-03-14T02:04:36;96744.06;;;9.99;82.04
28181;BME280;15464;50.988;10.318;2023-03-14T02:09:31;96747.06;;;9.96;82.79
28181;BME280;15464;50.988;10.318;2023-03-14T02:11:58;96736.47;;;9.96;83.25
28181;BME280;15464;50.988;10.318;2023-03-14T02:14:30;96717.38;;;10.00;82.54
28181;BME280;15464;50.988;10.318;2023-03-14T02:16:58;96715.94;;;9.98;83.11
28181;BME280;15464;50.988;10.318;2023-03-14T02:22:16;96713.00;;;9.93;83.78
28181;BME280;15464;50.988;10.318;2023-03-14T02:27:20;96717.78;;;9.75;84.48
28181;BME280;15464;50.988;10.318;2023-03-14T02:29:51;96708.50;;;9.79;84.49
28181;BME280;15464;50.988;10.318;2023-03-14T02:32:19;96718.28;;;9.78;84.65
28181;BME280;15464;50.988;10.318;2023-03-14T02:34:50;96715.91;;;9.83;84.77
28181;BME280;15464;50.988;10.318;2023-03-14T02:37:21;96720.38;;;9.83;84.65
28181;BME280;15464;50.988;10.318;2023-03-14T02:39:49;96695.38;;;9.85;84.68
28181;BME280;15464;50.988;10.318;2023-03-14T02:42:17;96709.78;;;9.83;84.91
28181;BME280;15464;50.988;10.318;2023-03-14T02:45:41;96699.91;;;9.77;85.38
28181;BME280;15464;50.988;10.318;2023-03-14T02:47:54;96709.34;;;9.79;85.49
28181;BME280;15464;50.988;10.318;2023-03-14T02:50:26;96717.44;;;9.78;85.33
28181;BME280;15464;50.988;10.318;2023-03-14T02:52:55;96720.38;;;9.83;85.20
28181;BME280;15464;50.988;10.318;2023-03-14T02:55:23;96716.72;;;9.84;84.91
28181;BME280;15464;50.988;10.318;2023-03-14T02:57:50;96722.38;;;9.81;85.57
28181;BME280;15464;50.988;10.318;2023-03-14T03:00:17;96706.13;;;9.84;84.87
28181;BME280;15464;50.988;10.318;2023-03-14T03:02:43;96691.72;;;9.86;85.07
28181;BME280;15464;50.988;10.318;2023-03-14T03:05:10;96686.13;;;9.81;84.77
28181;BME280;15464;50.988;10.318;2023-03-14T03:07:37;96685.69;;;9.78;85.18
28181;BME280;15464;50.988;10.318;2023-03-14T03:10:04;96681.66;;;9.82;84.62
28181;BME280;15464;50.988;10.318;2023-03-14T03:12:31;96682.47;;;9.82;84.82
28181;BME280;15464;50.988;10.318;2023-03-14T03:14:58;96685.94;;;9.83;84.92
28181;BME280;15464;50.988;10.318;2023-03-14T03:17:24;96686.13;;;9.81;84.70
28181;BME280;15464;50.988;10.318;2023-03-14T03:19:51;96686.94;;;9.82;84.74
28181;BME280;15464;50.988;10.318;2023-03-14T03:22:17;96694.63;;;9.77;84.81
28181;BME280;15464;50.988;10.318;2023-03-14T03:24:44;96688.06;;;9.73;85.27
28181;BME280;15464;50.988;10.318;2023-03-14T03:27:11;96687.69;;;9.76;84.77
28181;BME280;15464;50.988;10.318;2023-03-14T03:29:37;96661.84;;;9.78;84.34
28181;BME280;15464;50.988;10.318;2023-03-14T03:32:04;96669.06;;;9.84;84.56
28181;BME280;15464;50.988;10.318;2023-03-14T03:34:31;96680.38;;;9.78;84.44
28181;BME280;15464;50.988;10.318;2023-03-14T03:36:57;96679.38;;;9.79;84.98
28181;BME280;15464;50.988;10.318;2023-03-14T03:39:24;96681.38;;;9.77;84.69
28181;BME280;15464;50.988;10.318;2023-03-14T03:41:51;96675.75;;;9.80;84.13
28181;BME280;15464;50.988;10.318;2023-03-14T03:44:17;96672.28;;;9.79;83.43
28181;BME280;15464;50.988;10.318;2023-03-14T03:46:44;96686.34;;;9.80;84.39
28181;BME280;15464;50.988;10.318;2023-03-14T03:49:11;96674.28;;;9.77;84.13
28181;BME280;15464;50.988;10.318;2023-03-14T03:51:39;96676.75;;;9.79;83.70
28181;BME280;15464;50.988;10.318;2023-03-14T03:54:06;96678.75;;;9.77;83.83
28181;BME280;15464;50.988;10.318;2023-03-14T03:56:32;96672.72;;;9.83;83.80
28181;BME280;15464;50.988;10.318;2023-03-14T03:58:59;96685.03;;;9.76;84.26
28181;BME280;15464;50.988;10.318;2023-03-14T04:01:26;96675.81;;;9.71;83.97
28181;BME280;15464;50.988;10.318;2023-03-14T04:03:53;96679.13;;;9.74;83.96
28181;BME280;15464;50.988;10.318;2023-03-14T04:06:20;96674.16;;;9.70;84.49
28181;BME280;15464;50.988;10.318;2023-03-14T04:08:46;96662.75;;;9.70;84.52
28181;BME280;15464;50.988;10.318;2023-03-14T04:11:13;96666.78;;;9.66;84.36
28181;BME280;15464;50.988;10.318;2023-03-14T04:13:42;96661.50;;;9.66;84.63
28181;BME280;15464;50.988;10.318;2023-03-14T04:16:16;96656.19;;;9.66;84.12
28181;BME280;15464;50.988;10.318;2023-03-14T04:18:43;96659.00;;;9.64;84.75
28181;BME280;15464;50.988;10.318;2023-03-14T04:21:10;96671.97;;;9.59;86.62
28181;BME280;15464;50.988;10.318;2023-03-14T04:23:37;96668.22;;;9.54;87.77
28181;BME280;15464;50.988;10.318;2023-03-14T04:26:04;96663.56;;;9.41;90.64
28181;BME280;15464;50.988;10.318;2023-03-14T04:28:31;96656.66;;;9.32;91.79
28181;BME280;15464;50.988;10.318;2023-03-14T04:30:58;96663.41;;;9.20;93.47
28181;BME280;15464;50.988;10.318;2023-03-14T04:33:24;96649.34;;;9.19;93.82
28181;BME280;15464;50.988;10.318;2023-03-14T04:35:53;96651.38;;;9.17;94.14
28181;BME280;15464;50.988;10.318;2023-03-14T04:38:20;96646.59;;;9.13;95.32
28181;BME280;15464;50.988;10.318;2023-03-14T04:40:47;96637.81;;;9.12;95.20
28181;BME280;15464;50.988;10.318;2023-03-14T04:43:13;96635.44;;;9.03;96.40
28181;BME280;15464;50.988;10.318;2023-03-14T04:45:43;96639.97;;;8.94;97.48
28181;BME280;15464;50.988;10.318;2023-03-14T04:48:10;96621.53;;;8.86;98.01
28181;BME280;15464;50.988;10.318;2023-03-14T04:50:37;96634.09;;;8.84;98.09
28181;BME280;15464;50.988;10.318;2023-03-14T04:53:04;96633.94;;;8.85;96.57
28181;BME280;15464;50.988;10.318;2023-03-14T04:55:32;96624.06;;;8.79;95.94
28181;BME280;15464;50.988;10.318;2023-03-14T04:57:59;96616.16;;;8.79;96.42
28181;BME280;15464;50.988;10.318;2023-03-14T05:00:25;96619.13;;;8.76;96.23
28181;BME280;15464;50.988;10.318;2023-03-14T05:02:52;96616.59;;;8.83;94.27
28181;BME280;15464;50.988;10.318;2023-03-14T05:05:19;96601.94;;;8.80;92.95
28181;BME280;15464;50.988;10.318;2023-03-14T05:07:46;96607.56;;;8.77;93.19
28181;BME280;15464;50.988;10.318;2023-03-14T05:10:13;96600.91;;;8.81;93.01
28181;BME280;15464;50.988;10.318;2023-03-14T05:12:39;96608.84;;;8.81;90.86
28181;BME280;15464;50.988;10.318;2023-03-14T05:15:07;96615.31;;;8.79;91.13
28181;BME280;15464;50.988;10.318;2023-03-14T05:17:33;96607.94;;;8.74;91.17
28181;BME280;15464;50.988;10.318;2023-03-14T05:20:00;96607.22;;;8.80;89.78
28181;BME280;15464;50.988;10.318;2023-03-14T05:22:27;96612.50;;;8.80;89.44
28181;BME280;15464;50.988;10.318;2023-03-14T05:24:54;96607.56;;;8.77;90.18
28181;BME280;15464;50.988;10.318;2023-03-14T05:27:23;96615.78;;;8.82;89.54
28181;BME280;15464;50.988;10.318;2023-03-14T05:29:49;96614.50;;;8.78;89.56
28181;BME280;15464;50.988;10.318;2023-03-14T05:32:16;96599.56;;;8.85;88.26
28181;BME280;15464;50.988;10.318;2023-03-14T05:34:43;96598.22;;;8.89;88.40
28181;BME280;15464;50.988;10.318;2023-03-14T05:37:09;96600.97;;;8.96;86.99
28181;BME280;15464;50.988;10.318;2023-03-14T05:39:36;96609.06;;;8.95;87.50
28181;BME280;15464;50.988;10.318;2023-03-14T05:42:02;96598.06;;;9.06;86.17
28181;BME280;15464;50.988;10.318;2023-03-14T05:44:29;96591.88;;;8.99;86.88
28181;BME280;15464;50.988;10.318;2023-03-14T05:46:56;96605.09;;;8.99;86.86
28181;BME280;15464;50.988;10.318;2023-03-14T05:49:23;96604.66;;;9.10;85.57
28181;BME280;15464;50.988;10.318;2023-03-14T05:51:49;96602.47;;;9.13;85.92
28181;BME280;15464;50.988;10.318;2023-03-14T05:54:16;96604.00;;;9.08;86.35
28181;BME280;15464;50.988;10.318;2023-03-14T05:56:43;96604.94;;;9.15;85.80
28181;BME280;15464;50.988;10.318;2023-03-14T05:59:09;96597.06;;;9.07;86.04
28181;BME280;15464;50.988;10.318;2023-03-14T06:01:36;96606.47;;;9.09;85.98
28181;BME280;15464;50.988;10.318;2023-03-14T06:04:03;96594.41;;;9.07;86.73
28181;BME280;15464;50.988;10.318;2023-03-14T06:06:29;96594.34;;;9.15;85.49
28181;BME280;15464;50.988;10.318;2023-03-14T06:08:56;96610.22;;;9.15;85.83
28181;BME280;15464;50.988;10.318;2023-03-14T06:11:23;96593.69;;;9.13;85.90
28181;BME280;15464;50.988;10.318;2023-03-14T06:13:50;96589.22;;;9.13;85.99
28181;BME280;15464;50.988;10.318;2023-03-14T06:16:17;96588.72;;;9.18;85.85
28181;BME280;15464;50.988;10.318;2023-03-14T06:18:44;96582.50;;;9.11;85.90
28181;BME280;15464;50.988;10.318;2023-03-14T06:21:13;96573.56;;;9.12;85.67
28181;BME280;15464;50.988;10.318;2023-03-14T06:23:39;96568.44;;;9.10;85.96
28181;BME280;15464;50.988;10.318;2023-03-14T06:26:06;96561.44;;;9.17;85.21
28181;BME280;15464;50.988;10.318;2023-03-14T06:28:33;96565.81;;;9.10;86.29
28181;BME280;15464;50.988;10.318;2023-03-14T06:31:00;96569.56;;;9.16;86.25
28181;BME280;15464;50.988;10.318;2023-03-14T06:33:27;96572.13;;;9.24;85.99
28181;BME280;15464;50.988;10.318;2023-03-14T06:35:53;96575.66;;;9.31;84.86
28181;BME280;15464;50.988;10.318;2023-03-14T06:38:20;96587.56;;;9.35;85.74
28181;BME280;15464;50.988;10.318;2023-03-14T06:40:47;96580.94;;;9.31;84.90
28181;BME280;15464;50.988;10.318;2023-03-14T06:43:13;96575.16;;;9.36;85.31
28181;BME280;15464;50.988;10.318;2023-03-14T06:45:40;96586.56;;;9.36;85.41
28181;BME280;15464;50.988;10.318;2023-03-14T06:48:07;96577.97;;;9.34;85.17
28181;BME280;15464;50.988;10.318;2023-03-14T06:50:33;96579.97;;;9.32;85.63
28181;BME280;15464;50.988;10.318;2023-03-14T06:53:00;96579.50;;;9.28;86.10
28181;BME280;15464;50.988;10.318;2023-03-14T06:55:27;96580.88;;;9.39;84.55
28181;BME280;15464;50.988;10.318;2023-03-14T06:57:54;96572.66;;;9.34;84.20
28181;BME280;15464;50.988;10.318;2023-03-14T07:00:20;96582.25;;;9.35;84.40
28181;BME280;15464;50.988;10.318;2023-03-14T07:02:47;96579.63;;;9.35;85.14
28181;BME280;15464;50.988;10.318;2023-03-14T07:05:14;96581.25;;;9.36;85.75
28181;BME280;15464;50.988;10.318;2023-03-14T07:07:41;96589.63;;;9.40;85.11
28181;BME280;15464;50.988;10.318;2023-03-14T07:10:08;96581.88;;;9.38;85.04
28181;BME280;15464;50.988;10.318;2023-03-14T07:12:35;96572.59;;;9.42;84.67
28181;BME280;15464;50.988;10.318;2023-03-14T07:15:02;96584.19;;;9.41;85.14
28181;BME280;15464;50.988;10.318;2023-03-14T07:17:43;96586.28;;;9.46;84.86
28181;BME280;15464;50.988;10.318;2023-03-14T07:20:10;96573.41;;;9.43;84.23
28181;BME280;15464;50.988;10.318;2023-03-14T07:22:36;96581.44;;;9.49;84.78
28181;BME280;15464;50.988;10.318;2023-03-14T07:25:03;96565.56;;;9.49;84.27
28181;BME280;15464;50.988;10.318;2023-03-14T07:27:30;96557.81;;;9.48;84.80
28181;BME280;15464;50.988;10.318;2023-03-14T07:29:57;96558.25;;;9.51;84.92
28181;BME280;15464;50.988;10.318;2023-03-14T07:32:24;96553.06;;;9.58;84.31
28181;BME280;15464;50.988;10.318;2023-03-14T07:34:50;96556.78;;;9.63;84.25
28181;BME280;15464;50.988;10.318;2023-03-14T07:37:17;96574.50;;;9.63;83.60
28181;BME280;15464;50.988;10.318;2023-03-14T07:39:44;96566.38;;;9.64;83.20
28181;BME280;15464;50.988;10.318;2023-03-14T07:42:10;96581.09;;;9.67;83.32
28181;BME280;15464;50.988;10.318;2023-03-14T07:44:37;96578.78;;;9.64;82.40
28181;BME280;15464;50.988;10.318;2023-03-14T07:47:04;96583.25;;;9.63;82.08
28181;BME280;15464;50.988;10.318;2023-03-14T07:49:30;96574.31;;;9.64;81.98
28181;BME280;15464;50.988;10.318;2023-03-14T07:51:57;96582.91;;;9.66;82.07
28181;BME280;15464;50.988;10.318;2023-03-14T07:54:24;96587.66;;;9.71;81.70
28181;BME280;15464;50.988;10.318;2023-03-14T07:56:51;96588.28;;;9.73;81.14
28181;BME280;15464;50.988;10.318;2023-03-14T07:59:20;96581.78;;;9.76;80.82
28181;BME280;15464;50.988;10.318;2023-03-14T08:01:47;96571.75;;;9.86;81.02
28181;BME280;15464;50.988;10.318;2023-03-14T08:04:14;96574.94;;;9.81;80.26
28181;BME280;15464;50.988;10.318;2023-03-14T08:06:40;96568.13;;;9.87;80.07
28181;BME280;15464;50.988;10.318;2023-03-14T08:09:07;96581.22;;;9.95;80.02
28181;BME280;15464;50.988;10.318;2023-03-14T08:11:34;96574.66;;;10.05;79.53
28181;BME280;15464;50.988;10.318;2023-03-14T08:14:01;96575.84;;;10.18;79.06
28181;BME280;15464;50.988;10.318;2023-03-14T08:16:27;96581.28;;;10.31;78.79
28181;BME280;15464;50.988;10.318;2023-03-14T08:18:54;96567.50;;;10.21;77.81
28181;BME280;15464;50.988;10.318;2023-03-14T08:21:22;96559.13;;;10.17;78.77
28181;BME280;15464;50.988;10.318;2023-03-14T08:23:49;96561.38;;;10.20;78.08
28181;BME280;15464;50.988;10.318;2023-03-14T08:26:15;96570.63;;;10.24;78.41
28181;BME280;15464;50.988;10.318;2023-03-14T08:28:42;96573.88;;;10.26;78.43
28181;BME280;15464;50.988;10.318;2023-03-14T08:31:09;96576.72;;;10.25;78.76
28181;BME280;15464;50.988;10.318;2023-03-14T08:33:35;96565.41;;;10.16;78.93
28181;BME280;15464;50.988;10.318;2023-03-14T08:36:02;96564.69;;;10.07;79.33
28181;BME280;15464;50.988;10.318;2023-03-14T08:38:29;96565.50;;;10.08;79.64
28181;BME280;15464;50.988;10.318;2023-03-14T08:41:00;96574.84;;;10.04;79.75
28181;BME280;15464;50.988;10.318;2023-03-14T08:43:27;96574.44;;;10.07;79.91
28181;BME280;15464;50.988;10.318;2023-03-14T08:45:58;96576.41;;;9.98;81.01
28181;BME280;15464;50.988;10.318;2023-03-14T08:48:25;96574.00;;;10.03;80.94
28181;BME280;15464;50.988;10.318;2023-03-14T08:50:52;96574.66;;;9.91;81.77
28181;BME280;15464;50.988;10.318;2023-03-14T08:53:18;96583.53;;;9.98;82.28
28181;BME280;15464;50.988;10.318;2023-03-14T08:55:47;96573.19;;;10.03;82.18
28181;BME280;15464;50.988;10.318;2023-03-14T08:58:13;96577.66;;;10.02;82.21
28181;BME280;15464;50.988;10.318;2023-03-14T09:00:40;96576.09;;;10.08;82.03
28181;BME280;15464;50.988;10.318;2023-03-14T09:03:07;96566.88;;;10.04;80.95
28181;BME280;15464;50.988;10.318;2023-03-14T09:05:34;96573.19;;;10.03;82.09
28181;BME280;15464;50.988;10.318;2023-03-14T09:08:01;96572.88;;;10.12;82.51
28181;BME280;15464;50.988;10.318;2023-03-14T09:10:28;96570.06;;;10.14;82.62
28181;BME280;15464;50.988;10.318;2023-03-14T09:12:54;96571.38;;;10.03;82.62
28181;BME280;15464;50.988;10.318;2023-03-14T09:15:22;96577.09;;;10.07;82.63
28181;BME280;15464;50.988;10.318;2023-03-14T09:17:48;96573.84;;;10.05;83.05
28181;BME280;15464;50.988;10.318;2023-03-14T09:20:15;96567.50;;;10.06;82.62
28181;BME280;15464;50.988;10.318;2023-03-14T09:22:42;96571.63;;;10.08;82.97
28181;BME280;15464;50.988;10.318;2023-03-14T09:25:09;96574.34;;;10.15;82.67
28181;BME280;15464;50.988;10.318;2023-03-14T09:27:37;96572.25;;;10.25;82.60
28181;BME280;15464;50.988;10.318;2023-03-14T09:30:04;96577.94;;;10.22;82.65
28181;BME280;15464;50.988;10.318;2023-03-14T09:32:31;96574.34;;;10.15;82.18
28181;BME280;15464;50.988;10.318;2023-03-14T09:34:58;96567.91;;;10.18;82.60
28181;BME280;15464;50.988;10.318;2023-03-14T09:37:25;96575.09;;;10.24;82.46
28181;BME280;15464;50.988;10.318;2023-03-14T09:39:52;96574.53;;;10.28;82.62
28181;BME280;15464;50.988;10.318;2023-03-14T09:42:22;96585.88;;;10.22;82.03
28181;BME280;15464;50.988;10.318;2023-03-14T09:45:07;96592.53;;;10.18;82.77
28181;BME280;15464;50.988;10.318;2023-03-14T09:47:37;96584.41;;;10.20;82.40
28181;BME280;15464;50.988;10.318;2023-03-14T09:50:18;96589.25;;;10.16;83.45
28181;BME280;15464;50.988;10.318;2023-03-14T09:52:48;96611.53;;;10.07;83.94
28181;BME280;15464;50.988;10.318;2023-03-14T09:55:19;96603.56;;;10.07;83.63
28181;BME280;15464;50.988;10.318;2023-03-14T09:57:55;96578.94;;;10.21;83.09
28181;BME280;15464;50.988;10.318;2023-03-14T10:00:26;96590.25;;;10.15;83.60
28181;BME280;15464;50.988;10.318;2023-03-14T10:02:56;96593.16;;;10.35;83.38
28181;BME280;15464;50.988;10.318;2023-03-14T10:05:25;96588.13;;;10.25;83.40
28181;BME280;15464;50.988;10.318;2023-03-14T10:07:54;96589.78;;;10.26;83.35
28181;BME280;15464;50.988;10.318;2023-03-14T10:10:23;96594.47;;;10.45;83.65
28181;BME280;15464;50.988;10.318;2023-03-14T10:13:18;96588.00;;;10.48;83.84
28181;BME280;15464;50.988;10.318;2023-03-14T10:15:52;96599.72;;;10.39;85.17
28181;BME280;15464;50.988;10.318;2023-03-14T10:18:20;96597.63;;;10.34;86.00
28181;BME280;15464;50.988;10.318;2023-03-14T10:20:49;96590.78;;;10.25;86.18
28181;BME280;15464;50.988;10.318;2023-03-14T10:28:55;96600.50;;;10.54;82.68
28181;BME280;15464;50.988;10.318;2023-03-14T10:31:27;96601.72;;;10.73;83.96
28181;BME280;15464;50.988;10.318;2023-03-14T10:34:02;96590.09;;;10.74;82.75
28181;BME280;15464;50.988;10.318;2023-03-14T10:36:32;96601.56;;;10.81;81.49
28181;BME280;15464;50.988;10.318;2023-03-14T10:39:24;96603.09;;;10.90;80.71
28181;BME280;15464;50.988;10.318;2023-03-14T10:41:54;96601.50;;;10.96;80.43
28181;BME280;15464;50.988;10.318;2023-03-14T10:44:24;96601.69;;;11.15;81.15
28181;BME280;15464;50.988;10.318;2023-03-14T10:47:00;96598.50;;;11.26;79.67
28181;BME280;15464;50.988;10.318;2023-03-14T10:49:34;96594.47;;;11.09;80.30
28181;BME280;15464;50.988;10.318;2023-03-14T10:52:22;96599.84;;;11.44;79.08
28181;BME280;15464;50.988;10.318;2023-03-14T10:55:04;96606.00;;;11.51;77.55
28181;BME280;15464;50.988;10.318;2023-03-14T10:57:39;96599.78;;;11.37;78.52
28181;BME280;15464;50.988;10.318;2023-03-14T11:00:11;96582.84;;;11.66;79.34
28181;BME280;15464;50.988;10.318;2023-03-14T11:08:23;96589.13;;;11.86;77.47
28181;BME280;15464;50.988;10.318;2023-03-14T11:10:54;96585.50;;;11.66;77.15
28181;BME280;15464;50.988;10.318;2023-03-14T11:13:29;96578.53;;;11.93;76.43
28181;BME280;15464;50.988;10.318;2023-03-14T11:21:16;96573.72;;;11.75;76.72
28181;BME280;15464;50.988;10.318;2023-03-14T11:29:07;96573.63;;;11.96;75.57
28181;BME280;15464;50.988;10.318;2023-03-14T11:31:38;96570.38;;;12.01;75.31
28181;BME280;15464;50.988;10.318;2023-03-14T11:36:54;96559.03;;;12.27;74.79
28181;BME280;15464;50.988;10.318;2023-03-14T11:39:26;96559.94;;;12.60;74.33
28181;BME280;15464;50.988;10.318;2023-03-14T11:41:58;96558.66;;;12.36;73.58
28181;BME280;15464;50.988;10.318;2023-03-14T11:44:30;96567.16;;;12.19;73.92
28181;BME280;15464;50.988;10.318;2023-03-14T11:50:04;96563.44;;;12.06;76.56
28181;BME280;15464;50.988;10.318;2023-03-14T11:52:51;96567.47;;;11.89;75.53
28181;BME280;15464;50.988;10.318;2023-03-14T11:55:31;96574.41;;;11.90;79.72
28181;BME280;15464;50.988;10.318;2023-03-14T11:58:03;96569.72;;;11.86;81.64
28181;BME280;15464;50.988;10.318;2023-03-14T12:00:36;96566.13;;;11.72;80.44
28181;BME280;15464;50.988;10.318;2023-03-14T12:09:01;96564.00;;;11.54;79.53
28181;BME280;15464;50.988;10.318;2023-03-14T12:11:47;96565.09;;;11.39;77.59
28181;BME280;15464;50.988;10.318;2023-03-14T12:14:27;96563.44;;;11.38;78.63
28181;BME280;15464;50.988;10.318;2023-03-14T12:16:57;96562.34;;;11.53;78.53
28181;BME280;15464;50.988;10.318;2023-03-14T12:19:26;96566.75;;;11.40;80.37
28181;BME280;15464;50.988;10.318;2023-03-14T12:24:47;96560.28;;;11.49;81.52
28181;BME280;15464;50.988;10.318;2023-03-14T12:30:35;96555.88;;;11.69;81.08
28181;BME280;15464;50.988;10.318;2023-03-14T12:35:42;96550.91;;;11.53;80.43
28181;BME280;15464;50.988;10.318;2023-03-14T12:43:48;96546.59;;;11.80;78.84
28181;BME280;15464;50.988;10.318;2023-03-14T12:46:21;96552.63;;;11.67;79.16
28181;BME280;15464;50.988;10.318;2023-03-14T12:51:58;96562.38;;;11.60;79.83
28181;BME280;15464;50.988;10.318;2023-03-14T13:00:18;96553.88;;;11.09;83.57
28181;BME280;15464;50.988;10.318;2023-03-14T13:02:48;96555.88;;;11.07;84.96
28181;BME280;15464;50.988;10.318;2023-03-14T13:05:21;96556.94;;;11.12;82.97
28181;BME280;15464;50.988;10.318;2023-03-14T13:10:26;96557.28;;;11.03;83.42
28181;BME280;15464;50.988;10.318;2023-03-14T13:15:43;96559.25;;;10.94;83.18
28181;BME280;15464;50.988;10.318;2023-03-14T13:18:17;96569.56;;;10.82;84.99
28181;BME280;15464;50.988;10.318;2023-03-14T13:20:52;96576.94;;;10.87;85.91
28181;BME280;15464;50.988;10.318;2023-03-14T13:23:30;96587.56;;;10.66;86.11
28181;BME280;15464;50.988;10.318;2023-03-14T13:25:59;96584.41;;;10.56;88.72
28181;BME280;15464;50.988;10.318;2023-03-14T13:28:28;96585.31;;;10.27;92.39
28181;BME280;15464;50.988;10.318;2023-03-14T13:31:01;96604.31;;;10.01;94.77
28181;BME280;15464;50.988;10.318;2023-03-14T13:33:28;96618.41;;;9.87;96.54
28181;BME280;15464;50.988;10.318;2023-03-14T13:38:24;96645.13;;;9.62;100.00
28181;BME280;15464;50.988;10.318;2023-03-14T13:40:54;96719.06;;;9.49;100.00
28181;BME280;15464;50.988;10.318;2023-03-14T13:43:43;96712.56;;;8.83;91.53
28181;BME280;15464;50.988;10.318;2023-03-14T13:46:24;96729.66;;;8.42;91.54
28181;BME280;15464;50.988;10.318;2023-03-14T13:48:56;96745.19;;;8.29;94.17
28181;BME280;15464;50.988;10.318;2023-03-14T13:51:23;96746.19;;;8.36;93.04
28181;BME280;15464;50.988;10.318;2023-03-14T13:53:53;96771.91;;;8.26;94.82
28181;BME280;15464;50.988;10.318;2023-03-14T13:56:23;96782.47;;;8.26;94.00
28181;BME280;15464;50.988;10.318;2023-03-14T13:58:50;96802.34;;;7.97;94.81
28181;BME280;15464;50.988;10.318;2023-03-14T14:01:29;96799.22;;;7.94;96.43
28181;BME280;15464;50.988;10.318;2023-03-14T14:04:23;96809.47;;;7.81;96.93
28181;BME280;15464;50.988;10.318;2023-03-14T14:06:59;96827.41;;;7.93;96.39
28181;BME280;15464;50.988;10.318;2023-03-14T14:09:35;96844.91;;;8.02;95.98
28181;BME280;15464;50.988;10.318;2023-03-14T14:12:06;96840.31;;;7.96;93.48
28181;BME280;15464;50.988;10.318;2023-03-14T14:14:43;96863.41;;;7.86;94.49
28181;BME280;15464;50.988;10.318;2023-03-14T14:17:17;96874.09;;;7.52;95.84
28181;BME280;15464;50.988;10.318;2023-03-14T14:19:46;96894.00;;;7.39;94.08